sensor_id;sensor_type;location;lat;lon;timestamp;P1;durP1;ratioP1;P2;durP2;ratioP2
53439;SDS011;39333;47.044;15.080;2023-01-31T00:01:31;157.65;;;150.70;;
53439;SDS011;39333;47.044;15.080;2023-01-31T00:04:01;147.75;;;141.65;;
53439;SDS011;39333;47.044;15.080;2023-01-31T00:06:34;156.57;;;150.30;;
53439;SDS011;39333;47.044;15.080;2023-01-31T00:09:03;145.55;;;139.65;;
53439;SDS011;39333;47.044;15.080;2023-01-31T00:11:31;147.57;;;140.98;;
53439;SDS011;39333;47.044;15.080;2023-01-31T00:14:00;153.30;;;146.63;;
53439;SDS011;39333;47.044;15.080;2023-01-31T00:16:31;145.65;;;139.50;;
53439;SDS011;39333;47.044;15.080;2023-01-31T00:18:58;149.18;;;142.98;;
53439;SDS011;39333;47.044;15.080;2023-01-31T00:21:26;143.18;;;137.10;;
53439;SDS011;39333;47.044;15.080;2023-01-31T00:23:54;161.65;;;154.60;;
53439;SDS011;39333;47.044;15.080;2023-01-31T00:26:30;147.77;;;141.23;;
53439;SDS011;39333;47.044;15.080;2023-01-31T00:28:59;142.10;;;136.10;;
53439;SDS011;39333;47.044;15.080;2023-01-31T00:31:27;154.25;;;148.00;;
53439;SDS011;39333;47.044;15.080;2023-01-31T00:33:55;146.75;;;140.25;;
53439;SDS011;39333;47.044;15.080;2023-01-31T00:36:24;150.50;;;144.00;;
53439;SDS011;39333;47.044;15.080;2023-01-31T00:38:54;159.65;;;152.27;;
53439;SDS011;39333;47.044;15.080;2023-01-31T00:41:23;150.70;;;143.10;;
53439;SDS011;39333;47.044;15.080;2023-01-31T00:43:51;159.55;;;152.20;;
53439;SDS011;39333;47.044;15.080;2023-01-31T00:46:18;152.35;;;145.45;;
53439;SDS011;39333;47.044;15.080;2023-01-31T00:48:49;144.57;;;137.10;;
53439;SDS011;39333;47.044;15.080;2023-01-31T00:51:17;157.95;;;150.10;;
53439;SDS011;39333;47.044;15.080;2023-01-31T00:53:44;154.77;;;147.85;;
53439;SDS011;39333;47.044;15.080;2023-01-31T00:56:13;151.15;;;144.82;;
53439;SDS011;39333;47.044;15.080;2023-01-31T00:58:42;155.43;;;148.30;;
53439;SDS011;39333;47.044;15.080;2023-01-31T01:01:14;149.43;;;143.30;;
53439;SDS011;39333;47.044;15.080;2023-01-31T01:03:44;160.65;;;153.43;;
53439;SDS011;39333;47.044;15.080;2023-01-31T01:06:12;145.95;;;139.98;;
53439;SDS011;39333;47.044;15.080;2023-01-31T01:08:41;148.40;;;142.00;;
53439;SDS011;39333;47.044;15.080;2023-01-31T01:11:09;153.32;;;146.45;;
53439;SDS011;39333;47.044;15.080;2023-01-31T01:13:48;148.65;;;142.55;;
53439;SDS011;39333;47.044;15.080;2023-01-31T01:16:19;149.18;;;142.48;;
53439;SDS011;39333;47.044;15.080;2023-01-31T01:18:49;154.77;;;148.23;;
53439;SDS011;39333;47.044;15.080;2023-01-31T01:21:20;148.15;;;141.95;;
53439;SDS011;39333;47.044;15.080;2023-01-31T01:23:49;149.43;;;142.77;;
53439;SDS011;39333;47.044;15.080;2023-01-31T01:26:34;161.57;;;154.88;;
53439;SDS011;39333;47.044;15.080;2023-01-31T01:29:03;153.10;;;146.48;;
53439;SDS011;39333;47.044;15.080;2023-01-31T01:31:30;150.32;;;143.82;;
53439;SDS011;39333;47.044;15.080;2023-01-31T01:34:02;153.55;;;147.13;;
53439;SDS011;39333;47.044;15.080;2023-01-31T01:36:32;156.68;;;149.52;;
53439;SDS011;39333;47.044;15.080;2023-01-31T01:39:01;151.82;;;145.57;;
53439;SDS011;39333;47.044;15.080;2023-01-31T01:41:34;154.10;;;147.65;;
53439;SDS011;39333;47.044;15.080;2023-01-31T01:44:03;158.35;;;151.38;;
53439;SDS011;39333;47.044;15.080;2023-01-31T01:46:50;164.13;;;156.68;;
53439;SDS011;39333;47.044;15.080;2023-01-31T01:49:28;168.18;;;161.07;;
53439;SDS011;39333;47.044;15.080;2023-01-31T01:52:00;171.10;;;163.15;;
53439;SDS011;39333;47.044;15.080;2023-01-31T01:54:45;153.60;;;147.48;;
53439;SDS011;39333;47.044;15.080;2023-01-31T01:57:19;157.52;;;150.82;;
53439;SDS011;39333;47.044;15.080;2023-01-31T01:59:53;150.48;;;143.73;;
53439;SDS011;39333;47.044;15.080;2023-01-31T02:02:27;147.88;;;141.13;;
53439;SDS011;39333;47.044;15.080;2023-01-31T02:04:54;147.10;;;140.90;;
53439;SDS011;39333;47.044;15.080;2023-01-31T02:07:20;144.00;;;137.40;;
53439;SDS011;39333;47.044;15.080;2023-01-31T02:12:38;138.13;;;132.45;;
53439;SDS011;39333;47.044;15.080;2023-01-31T02:15:06;155.38;;;148.73;;
53439;SDS011;39333;47.044;15.080;2023-01-31T02:17:34;152.88;;;146.55;;
53439;SDS011;39333;47.044;15.080;2023-01-31T02:20:09;156.07;;;149.15;;
53439;SDS011;39333;47.044;15.080;2023-01-31T02:25:37;152.60;;;145.75;;
53439;SDS011;39333;47.044;15.080;2023-01-31T02:28:23;154.77;;;147.82;;
53439;SDS011;39333;47.044;15.080;2023-01-31T02:33:51;147.13;;;140.38;;
53439;SDS011;39333;47.044;15.080;2023-01-31T02:44:58;154.40;;;147.38;;
53439;SDS011;39333;47.044;15.080;2023-01-31T02:53:31;150.50;;;144.00;;
53439;SDS011;39333;47.044;15.080;2023-01-31T02:56:03;139.98;;;133.98;;
53439;SDS011;39333;47.044;15.080;2023-01-31T02:58:41;146.45;;;139.95;;
53439;SDS011;39333;47.044;15.080;2023-01-31T03:01:15;146.80;;;140.73;;
53439;SDS011;39333;47.044;15.080;2023-01-31T03:03:47;151.70;;;145.07;;
53439;SDS011;39333;47.044;15.080;2023-01-31T03:09:17;145.23;;;139.02;;
53439;SDS011;39333;47.044;15.080;2023-01-31T03:17:13;145.63;;;139.32;;
53439;SDS011;39333;47.044;15.080;2023-01-31T03:20:03;147.43;;;140.82;;
53439;SDS011;39333;47.044;15.080;2023-01-31T03:22:34;139.05;;;132.65;;
53439;SDS011;39333;47.044;15.080;2023-01-31T03:25:06;134.38;;;127.55;;
53439;SDS011;39333;47.044;15.080;2023-01-31T03:27:39;134.73;;;128.43;;
53439;SDS011;39333;47.044;15.080;2023-01-31T03:30:17;142.50;;;136.30;;
53439;SDS011;39333;47.044;15.080;2023-01-31T03:32:52;143.95;;;137.55;;
53439;SDS011;39333;47.044;15.080;2023-01-31T03:35:26;144.57;;;137.50;;
53439;SDS011;39333;47.044;15.080;2023-01-31T03:38:00;159.88;;;149.00;;
53439;SDS011;39333;47.044;15.080;2023-01-31T03:40:41;139.43;;;133.13;;
53439;SDS011;39333;47.044;15.080;2023-01-31T03:45:56;144.27;;;138.18;;
53439;SDS011;39333;47.044;15.080;2023-01-31T03:48:32;145.45;;;138.45;;
53439;SDS011;39333;47.044;15.080;2023-01-31T03:51:05;131.70;;;125.90;;
53439;SDS011;39333;47.044;15.080;2023-01-31T03:53:37;147.70;;;141.18;;
53439;SDS011;39333;47.044;15.080;2023-01-31T03:56:12;134.35;;;128.43;;
53439;SDS011;39333;47.044;15.080;2023-01-31T03:58:41;147.05;;;140.75;;
53439;SDS011;39333;47.044;15.080;2023-01-31T04:01:13;143.10;;;135.60;;
53439;SDS011;39333;47.044;15.080;2023-01-31T04:03:57;150.75;;;144.13;;
53439;SDS011;39333;47.044;15.080;2023-01-31T04:06:29;137.43;;;131.70;;
53439;SDS011;39333;47.044;15.080;2023-01-31T04:08:56;137.10;;;130.90;;
53439;SDS011;39333;47.044;15.080;2023-01-31T04:11:24;134.52;;;128.63;;
53439;SDS011;39333;47.044;15.080;2023-01-31T04:13:52;149.63;;;143.13;;
53439;SDS011;39333;47.044;15.080;2023-01-31T04:16:19;144.70;;;138.45;;
53439;SDS011;39333;47.044;15.080;2023-01-31T04:18:46;149.48;;;142.95;;
53439;SDS011;39333;47.044;15.080;2023-01-31T04:21:13;152.43;;;145.10;;
53439;SDS011;39333;47.044;15.080;2023-01-31T04:23:40;150.48;;;144.07;;
53439;SDS011;39333;47.044;15.080;2023-01-31T04:26:07;157.35;;;149.75;;
53439;SDS011;39333;47.044;15.080;2023-01-31T04:28:35;151.77;;;145.30;;
53439;SDS011;39333;47.044;15.080;2023-01-31T04:31:02;143.40;;;137.20;;
53439;SDS011;39333;47.044;15.080;2023-01-31T04:33:29;148.43;;;142.02;;
53439;SDS011;39333;47.044;15.080;2023-01-31T04:35:56;140.15;;;134.25;;
53439;SDS011;39333;47.044;15.080;2023-01-31T04:38:23;138.55;;;132.23;;
53439;SDS011;39333;47.044;15.080;2023-01-31T04:40:50;139.57;;;133.27;;
53439;SDS011;39333;47.044;15.080;2023-01-31T04:43:17;140.77;;;134.43;;
53439;SDS011;39333;47.044;15.080;2023-01-31T04:45:46;150.57;;;144.02;;
53439;SDS011;39333;47.044;15.080;2023-01-31T04:48:13;154.73;;;148.13;;
53439;SDS011;39333;47.044;15.080;2023-01-31T04:50:40;154.02;;;147.48;;
53439;SDS011;39333;47.044;15.080;2023-01-31T04:53:07;138.60;;;132.82;;
53439;SDS011;39333;47.044;15.080;2023-01-31T04:55:35;158.35;;;151.30;;
53439;SDS011;39333;47.044;15.080;2023-01-31T04:58:02;139.15;;;133.15;;
53439;SDS011;39333;47.044;15.080;2023-01-31T05:00:32;150.50;;;143.95;;
53439;SDS011;39333;47.044;15.080;2023-01-31T05:02:59;138.48;;;131.98;;
53439;SDS011;39333;47.044;15.080;2023-01-31T05:05:26;135.88;;;130.05;;
53439;SDS011;39333;47.044;15.080;2023-01-31T05:07:53;142.82;;;135.48;;
53439;SDS011;39333;47.044;15.080;2023-01-31T05:10:20;149.00;;;142.80;;
53439;SDS011;39333;47.044;15.080;2023-01-31T05:12:47;154.35;;;147.02;;
53439;SDS011;39333;47.044;15.080;2023-01-31T05:15:14;136.73;;;130.73;;
53439;SDS011;39333;47.044;15.080;2023-01-31T05:17:43;153.25;;;146.57;;
53439;SDS011;39333;47.044;15.080;2023-01-31T05:20:10;150.93;;;144.27;;
53439;SDS011;39333;47.044;15.080;2023-01-31T05:22:37;144.95;;;138.68;;
53439;SDS011;39333;47.044;15.080;2023-01-31T05:25:04;143.80;;;137.10;;
53439;SDS011;39333;47.044;15.080;2023-01-31T05:27:31;140.88;;;135.07;;
53439;SDS011;39333;47.044;15.080;2023-01-31T05:29:59;144.73;;;138.32;;
53439;SDS011;39333;47.044;15.080;2023-01-31T05:32:26;137.68;;;131.77;;
53439;SDS011;39333;47.044;15.080;2023-01-31T05:34:53;150.77;;;144.00;;
53439;SDS011;39333;47.044;15.080;2023-01-31T05:37:20;142.48;;;135.93;;
53439;SDS011;39333;47.044;15.080;2023-01-31T05:39:47;140.57;;;134.52;;
53439;SDS011;39333;47.044;15.080;2023-01-31T05:42:14;141.05;;;134.38;;
53439;SDS011;39333;47.044;15.080;2023-01-31T05:44:41;134.43;;;128.13;;
53439;SDS011;39333;47.044;15.080;2023-01-31T05:47:08;137.48;;;130.55;;
53439;SDS011;39333;47.044;15.080;2023-01-31T05:49:34;135.07;;;128.23;;
53439;SDS011;39333;47.044;15.080;2023-01-31T05:52:02;137.50;;;131.40;;
53439;SDS011;39333;47.044;15.080;2023-01-31T05:54:29;139.55;;;131.73;;
53439;SDS011;39333;47.044;15.080;2023-01-31T05:56:56;152.80;;;142.50;;
53439;SDS011;39333;47.044;15.080;2023-01-31T05:59:23;136.13;;;128.73;;
53439;SDS011;39333;47.044;15.080;2023-01-31T06:01:51;129.30;;;123.43;;
53439;SDS011;39333;47.044;15.080;2023-01-31T06:04:20;129.55;;;123.78;;
53439;SDS011;39333;47.044;15.080;2023-01-31T06:06:46;142.75;;;136.38;;
53439;SDS011;39333;47.044;15.080;2023-01-31T06:09:13;140.98;;;134.45;;
53439;SDS011;39333;47.044;15.080;2023-01-31T06:11:40;136.23;;;129.57;;
53439;SDS011;39333;47.044;15.080;2023-01-31T06:14:08;129.02;;;122.45;;
53439;SDS011;39333;47.044;15.080;2023-01-31T06:16:35;139.32;;;132.35;;
53439;SDS011;39333;47.044;15.080;2023-01-31T06:19:02;140.13;;;133.88;;
53439;SDS011;39333;47.044;15.080;2023-01-31T06:21:29;133.15;;;126.78;;
53439;SDS011;39333;47.044;15.080;2023-01-31T06:23:56;141.95;;;135.27;;
53439;SDS011;39333;47.044;15.080;2023-01-31T06:26:23;125.15;;;119.63;;
53439;SDS011;39333;47.044;15.080;2023-01-31T06:28:50;140.43;;;133.32;;
53439;SDS011;39333;47.044;15.080;2023-01-31T06:31:17;141.20;;;134.57;;
53439;SDS011;39333;47.044;15.080;2023-01-31T06:33:44;142.18;;;134.90;;
53439;SDS011;39333;47.044;15.080;2023-01-31T06:36:14;134.40;;;128.00;;
53439;SDS011;39333;47.044;15.080;2023-01-31T06:38:47;144.52;;;137.32;;
53439;SDS011;39333;47.044;15.080;2023-01-31T06:41:15;146.48;;;138.80;;
53439;SDS011;39333;47.044;15.080;2023-01-31T06:43:43;137.23;;;129.90;;
53439;SDS011;39333;47.044;15.080;2023-01-31T06:46:10;152.00;;;143.73;;
53439;SDS011;39333;47.044;15.080;2023-01-31T06:48:37;148.27;;;140.07;;
53439;SDS011;39333;47.044;15.080;2023-01-31T06:51:04;159.60;;;149.23;;
53439;SDS011;39333;47.044;15.080;2023-01-31T06:53:31;155.93;;;145.48;;
53439;SDS011;39333;47.044;15.080;2023-01-31T06:55:58;158.98;;;146.43;;
53439;SDS011;39333;47.044;15.080;2023-01-31T06:58:25;154.07;;;142.63;;
53439;SDS011;39333;47.044;15.080;2023-01-31T07:00:52;140.27;;;129.82;;
53439;SDS011;39333;47.044;15.080;2023-01-31T07:03:20;146.00;;;136.63;;
53439;SDS011;39333;47.044;15.080;2023-01-31T07:05:47;138.80;;;130.20;;
53439;SDS011;39333;47.044;15.080;2023-01-31T07:08:14;147.23;;;136.48;;
53439;SDS011;39333;47.044;15.080;2023-01-31T07:10:41;153.15;;;143.73;;
53439;SDS011;39333;47.044;15.080;2023-01-31T07:13:08;145.27;;;136.27;;
53439;SDS011;39333;47.044;15.080;2023-01-31T07:15:34;128.10;;;120.95;;
53439;SDS011;39333;47.044;15.080;2023-01-31T07:18:01;139.57;;;132.77;;
53439;SDS011;39333;47.044;15.080;2023-01-31T07:20:28;131.32;;;123.82;;
53439;SDS011;39333;47.044;15.080;2023-01-31T07:22:56;124.43;;;118.05;;
53439;SDS011;39333;47.044;15.080;2023-01-31T07:25:24;130.38;;;123.45;;
53439;SDS011;39333;47.044;15.080;2023-01-31T07:27:52;127.35;;;121.18;;
53439;SDS011;39333;47.044;15.080;2023-01-31T07:30:19;137.45;;;131.10;;
53439;SDS011;39333;47.044;15.080;2023-01-31T07:32:47;121.82;;;116.75;;
53439;SDS011;39333;47.044;15.080;2023-01-31T07:35:15;125.28;;;119.47;;
53439;SDS011;39333;47.044;15.080;2023-01-31T07:37:42;137.75;;;132.02;;
53439;SDS011;39333;47.044;15.080;2023-01-31T07:40:10;126.63;;;120.68;;
53439;SDS011;39333;47.044;15.080;2023-01-31T07:42:38;124.65;;;118.88;;
53439;SDS011;39333;47.044;15.080;2023-01-31T07:45:06;143.23;;;136.82;;
53439;SDS011;39333;47.044;15.080;2023-01-31T07:47:48;138.55;;;132.25;;
53439;SDS011;39333;47.044;15.080;2023-01-31T07:50:15;125.35;;;119.85;;
53439;SDS011;39333;47.044;15.080;2023-01-31T07:52:42;128.57;;;123.10;;
53439;SDS011;39333;47.044;15.080;2023-01-31T07:55:09;136.57;;;130.07;;
53439;SDS011;39333;47.044;15.080;2023-01-31T07:57:38;131.88;;;126.00;;
53439;SDS011;39333;47.044;15.080;2023-01-31T08:00:05;138.65;;;132.07;;
53439;SDS011;39333;47.044;15.080;2023-01-31T08:02:53;133.38;;;126.95;;
53439;SDS011;39333;47.044;15.080;2023-01-31T08:05:39;134.50;;;128.73;;
53439;SDS011;39333;47.044;15.080;2023-01-31T08:08:06;140.05;;;133.10;;
53439;SDS011;39333;47.044;15.080;2023-01-31T08:10:36;140.15;;;134.75;;
53439;SDS011;39333;47.044;15.080;2023-01-31T08:13:03;138.70;;;132.40;;
53439;SDS011;39333;47.044;15.080;2023-01-31T08:15:32;150.85;;;144.20;;
53439;SDS011;39333;47.044;15.080;2023-01-31T08:17:59;135.77;;;130.00;;
53439;SDS011;39333;47.044;15.080;2023-01-31T08:20:28;138.20;;;132.23;;
53439;SDS011;39333;47.044;15.080;2023-01-31T08:22:58;144.98;;;139.30;;
53439;SDS011;39333;47.044;15.080;2023-01-31T08:25:26;136.30;;;130.50;;
53439;SDS011;39333;47.044;15.080;2023-01-31T08:27:56;137.75;;;131.57;;
53439;SDS011;39333;47.044;15.080;2023-01-31T08:30:23;147.40;;;141.00;;
53439;SDS011;39333;47.044;15.080;2023-01-31T08:32:50;149.88;;;143.75;;
53439;SDS011;39333;47.044;15.080;2023-01-31T08:35:17;142.82;;;136.18;;
53439;SDS011;39333;47.044;15.080;2023-01-31T08:37:45;140.10;;;133.95;;
53439;SDS011;39333;47.044;15.080;2023-01-31T08:40:12;145.93;;;137.82;;
53439;SDS011;39333;47.044;15.080;2023-01-31T08:42:39;133.38;;;127.30;;
53439;SDS011;39333;47.044;15.080;2023-01-31T08:45:06;137.70;;;131.73;;
53439;SDS011;39333;47.044;15.080;2023-01-31T08:47:34;139.70;;;134.25;;
53439;SDS011;39333;47.044;15.080;2023-01-31T08:50:02;135.23;;;129.68;;
53439;SDS011;39333;47.044;15.080;2023-01-31T08:52:29;139.90;;;133.43;;
53439;SDS011;39333;47.044;15.080;2023-01-31T08:55:00;150.00;;;143.65;;
53439;SDS011;39333;47.044;15.080;2023-01-31T08:57:28;145.13;;;138.80;;
53439;SDS011;39333;47.044;15.080;2023-01-31T08:59:55;154.95;;;147.27;;
53439;SDS011;39333;47.044;15.080;2023-01-31T09:02:22;134.27;;;128.40;;
53439;SDS011;39333;47.044;15.080;2023-01-31T09:04:49;141.45;;;135.23;;
53439;SDS011;39333;47.044;15.080;2023-01-31T09:07:16;136.52;;;130.38;;
53439;SDS011;39333;47.044;15.080;2023-01-31T09:09:47;132.50;;;127.15;;
53439;SDS011;39333;47.044;15.080;2023-01-31T09:12:14;149.23;;;142.93;;
53439;SDS011;39333;47.044;15.080;2023-01-31T09:14:41;135.02;;;128.90;;
53439;SDS011;39333;47.044;15.080;2023-01-31T09:17:08;139.50;;;133.60;;
53439;SDS011;39333;47.044;15.080;2023-01-31T09:19:36;142.90;;;136.90;;
53439;SDS011;39333;47.044;15.080;2023-01-31T09:22:04;148.68;;;142.18;;
53439;SDS011;39333;47.044;15.080;2023-01-31T09:24:31;139.73;;;133.13;;
53439;SDS011;39333;47.044;15.080;2023-01-31T09:26:58;142.25;;;135.27;;
53439;SDS011;39333;47.044;15.080;2023-01-31T09:29:25;147.05;;;140.77;;
53439;SDS011;39333;47.044;15.080;2023-01-31T09:31:54;143.77;;;137.57;;
53439;SDS011;39333;47.044;15.080;2023-01-31T09:34:23;150.80;;;144.60;;
53439;SDS011;39333;47.044;15.080;2023-01-31T09:36:53;151.68;;;144.77;;
53439;SDS011;39333;47.044;15.080;2023-01-31T09:39:22;134.65;;;128.80;;
53439;SDS011;39333;47.044;15.080;2023-01-31T09:41:57;149.43;;;142.63;;
53439;SDS011;39333;47.044;15.080;2023-01-31T09:44:35;148.65;;;142.45;;
53439;SDS011;39333;47.044;15.080;2023-01-31T09:47:16;150.98;;;144.30;;
53439;SDS011;39333;47.044;15.080;2023-01-31T09:50:01;135.52;;;129.73;;
53439;SDS011;39333;47.044;15.080;2023-01-31T09:52:40;149.13;;;142.27;;
53439;SDS011;39333;47.044;15.080;2023-01-31T09:55:13;141.25;;;135.00;;
53439;SDS011;39333;47.044;15.080;2023-01-31T10:00:22;148.23;;;142.02;;
53439;SDS011;39333;47.044;15.080;2023-01-31T10:08:33;139.70;;;133.32;;
53439;SDS011;39333;47.044;15.080;2023-01-31T10:11:02;135.48;;;129.68;;
53439;SDS011;39333;47.044;15.080;2023-01-31T10:13:38;142.52;;;136.05;;
53439;SDS011;39333;47.044;15.080;2023-01-31T10:16:16;144.03;;;138.33;;
53439;SDS011;39333;47.044;15.080;2023-01-31T10:18:58;136.15;;;130.30;;
53439;SDS011;39333;47.044;15.080;2023-01-31T10:21:39;135.63;;;129.38;;
53439;SDS011;39333;47.044;15.080;2023-01-31T10:24:23;145.60;;;139.60;;
53439;SDS011;39333;47.044;15.080;2023-01-31T10:26:59;137.77;;;131.38;;
53439;SDS011;39333;47.044;15.080;2023-01-31T10:29:46;149.55;;;143.10;;
53439;SDS011;39333;47.044;15.080;2023-01-31T10:32:23;145.35;;;138.95;;
53439;SDS011;39333;47.044;15.080;2023-01-31T10:34:55;138.73;;;133.33;;
53439;SDS011;39333;47.044;15.080;2023-01-31T10:40:03;132.73;;;127.18;;
53439;SDS011;39333;47.044;15.080;2023-01-31T10:42:34;145.32;;;139.20;;
53439;SDS011;39333;47.044;15.080;2023-01-31T10:45:16;146.88;;;140.38;;
53439;SDS011;39333;47.044;15.080;2023-01-31T10:50:17;138.85;;;131.95;;
53439;SDS011;39333;47.044;15.080;2023-01-31T10:55:25;140.98;;;134.80;;
53439;SDS011;39333;47.044;15.080;2023-01-31T10:57:54;154.30;;;147.43;;
53439;SDS011;39333;47.044;15.080;2023-01-31T11:00:28;138.60;;;132.70;;
53439;SDS011;39333;47.044;15.080;2023-01-31T11:02:57;146.32;;;139.88;;
53439;SDS011;39333;47.044;15.080;2023-01-31T11:05:25;143.65;;;137.25;;
53439;SDS011;39333;47.044;15.080;2023-01-31T11:07:56;144.25;;;137.80;;
53439;SDS011;39333;47.044;15.080;2023-01-31T11:10:26;146.18;;;139.43;;
53439;SDS011;39333;47.044;15.080;2023-01-31T11:13:02;142.90;;;136.75;;
53439;SDS011;39333;47.044;15.080;2023-01-31T11:15:41;142.35;;;136.15;;
53439;SDS011;39333;47.044;15.080;2023-01-31T11:18:55;146.82;;;139.55;;
53439;SDS011;39333;47.044;15.080;2023-01-31T11:21:07;143.52;;;137.40;;
53439;SDS011;39333;47.044;15.080;2023-01-31T11:23:35;142.13;;;136.32;;
53439;SDS011;39333;47.044;15.080;2023-01-31T11:26:03;156.02;;;149.10;;
53439;SDS011;39333;47.044;15.080;2023-01-31T11:31:16;144.20;;;138.10;;
53439;SDS011;39333;47.044;15.080;2023-01-31T11:33:57;147.70;;;141.43;;
53439;SDS011;39333;47.044;15.080;2023-01-31T11:36:30;150.18;;;143.73;;
53439;SDS011;39333;47.044;15.080;2023-01-31T11:38:58;156.23;;;149.00;;
53439;SDS011;39333;47.044;15.080;2023-01-31T11:41:33;163.75;;;156.82;;
53439;SDS011;39333;47.044;15.080;2023-01-31T11:44:15;160.82;;;153.85;;
53439;SDS011;39333;47.044;15.080;2023-01-31T11:46:54;165.50;;;158.20;;
53439;SDS011;39333;47.044;15.080;2023-01-31T11:51:55;177.70;;;169.45;;
53439;SDS011;39333;47.044;15.080;2023-01-31T11:54:26;164.82;;;157.75;;
53439;SDS011;39333;47.044;15.080;2023-01-31T11:56:55;184.80;;;175.80;;
53439;SDS011;39333;47.044;15.080;2023-01-31T11:59:25;173.52;;;166.07;;
53439;SDS011;39333;47.044;15.080;2023-01-31T12:01:55;172.85;;;165.55;;
53439;SDS011;39333;47.044;15.080;2023-01-31T12:04:27;177.05;;;168.68;;
53439;SDS011;39333;47.044;15.080;2023-01-31T12:09:48;166.35;;;159.27;;
53439;SDS011;39333;47.044;15.080;2023-01-31T12:12:22;169.07;;;162.20;;
53439;SDS011;39333;47.044;15.080;2023-01-31T12:15:04;175.63;;;167.60;;
53439;SDS011;39333;47.044;15.080;2023-01-31T12:17:44;171.50;;;164.20;;
53439;SDS011;39333;47.044;15.080;2023-01-31T12:20:35;162.68;;;155.73;;
53439;SDS011;39333;47.044;15.080;2023-01-31T12:28:53;176.15;;;168.75;;
53439;SDS011;39333;47.044;15.080;2023-01-31T12:37:26;173.48;;;166.13;;
53439;SDS011;39333;47.044;15.080;2023-01-31T12:51:10;167.35;;;160.48;;
53439;SDS011;39333;47.044;15.080;2023-01-31T12:53:57;171.98;;;164.65;;
53439;SDS011;39333;47.044;15.080;2023-01-31T13:07:34;166.88;;;160.07;;
53439;SDS011;39333;47.044;15.080;2023-01-31T13:10:29;169.55;;;162.75;;
53439;SDS011;39333;47.044;15.080;2023-01-31T13:12:56;178.20;;;170.55;;
53439;SDS011;39333;47.044;15.080;2023-01-31T13:15:41;182.00;;;173.63;;
53439;SDS011;39333;47.044;15.080;2023-01-31T13:18:12;164.00;;;156.90;;
53439;SDS011;39333;47.044;15.080;2023-01-31T13:23:25;161.48;;;154.32;;
53439;SDS011;39333;47.044;15.080;2023-01-31T13:28:31;167.98;;;160.00;;
53439;SDS011;39333;47.044;15.080;2023-01-31T13:31:04;161.77;;;155.35;;
53439;SDS011;39333;47.044;15.080;2023-01-31T13:34:01;190.30;;;178.25;;
53439;SDS011;39333;47.044;15.080;2023-01-31T13:36:47;173.88;;;165.50;;
53439;SDS011;39333;47.044;15.080;2023-01-31T13:39:20;160.85;;;153.93;;
53439;SDS011;39333;47.044;15.080;2023-01-31T13:41:50;173.75;;;166.27;;
53439;SDS011;39333;47.044;15.080;2023-01-31T13:44:17;171.30;;;163.57;;
53439;SDS011;39333;47.044;15.080;2023-01-31T13:52:13;168.07;;;161.15;;
53439;SDS011;39333;47.044;15.080;2023-01-31T13:54:47;162.40;;;155.88;;
53439;SDS011;39333;47.044;15.080;2023-01-31T13:57:29;168.68;;;160.77;;
53439;SDS011;39333;47.044;15.080;2023-01-31T14:00:05;174.00;;;166.02;;
53439;SDS011;39333;47.044;15.080;2023-01-31T14:02:35;166.13;;;159.43;;
53439;SDS011;39333;47.044;15.080;2023-01-31T14:05:04;171.20;;;163.23;;
53439;SDS011;39333;47.044;15.080;2023-01-31T14:10:58;158.00;;;151.43;;
53439;SDS011;39333;47.044;15.080;2023-01-31T14:15:57;154.57;;;148.57;;
53439;SDS011;39333;47.044;15.080;2023-01-31T14:18:39;163.23;;;156.50;;
53439;SDS011;39333;47.044;15.080;2023-01-31T14:24:00;162.50;;;155.50;;
53439;SDS011;39333;47.044;15.080;2023-01-31T14:29:24;164.70;;;157.43;;
53439;SDS011;39333;47.044;15.080;2023-01-31T14:31:53;159.30;;;152.18;;
53439;SDS011;39333;47.044;15.080;2023-01-31T14:34:23;158.48;;;151.70;;
53439;SDS011;39333;47.044;15.080;2023-01-31T14:42:37;163.55;;;156.23;;
53439;SDS011;39333;47.044;15.080;2023-01-31T14:55:54;160.82;;;153.80;;
53439;SDS011;39333;47.044;15.080;2023-01-31T14:58:32;170.13;;;162.93;;
53439;SDS011;39333;47.044;15.080;2023-01-31T15:01:03;164.77;;;157.93;;
53439;SDS011;39333;47.044;15.080;2023-01-31T15:04:15;162.55;;;155.15;;
53439;SDS011;39333;47.044;15.080;2023-01-31T15:06:31;157.15;;;150.35;;
53439;SDS011;39333;47.044;15.080;2023-01-31T15:11:45;166.05;;;158.10;;
53439;SDS011;39333;47.044;15.080;2023-01-31T15:14:35;159.88;;;152.55;;
53439;SDS011;39333;47.044;15.080;2023-01-31T15:17:15;158.38;;;150.93;;
53439;SDS011;39333;47.044;15.080;2023-01-31T15:20:11;162.68;;;155.05;;
53439;SDS011;39333;47.044;15.080;2023-01-31T15:22:42;166.20;;;158.40;;
53439;SDS011;39333;47.044;15.080;2023-01-31T15:25:19;167.40;;;159.50;;
53439;SDS011;39333;47.044;15.080;2023-01-31T15:27:53;159.93;;;153.02;;
53439;SDS011;39333;47.044;15.080;2023-01-31T15:30:22;157.82;;;151.02;;
53439;SDS011;39333;47.044;15.080;2023-01-31T15:32:55;170.98;;;163.85;;
53439;SDS011;39333;47.044;15.080;2023-01-31T15:43:41;160.02;;;153.38;;
53439;SDS011;39333;47.044;15.080;2023-01-31T15:46:26;165.38;;;158.30;;
53439;SDS011;39333;47.044;15.080;2023-01-31T15:48:56;158.20;;;151.55;;
53439;SDS011;39333;47.044;15.080;2023-01-31T15:51:25;156.38;;;149.50;;
53439;SDS011;39333;47.044;15.080;2023-01-31T15:53:59;155.15;;;148.40;;
53439;SDS011;39333;47.044;15.080;2023-01-31T15:56:35;155.35;;;148.73;;
53439;SDS011;39333;47.044;15.080;2023-01-31T15:59:09;153.52;;;146.45;;
53439;SDS011;39333;47.044;15.080;2023-01-31T16:01:38;157.80;;;150.80;;
53439;SDS011;39333;47.044;15.080;2023-01-31T16:04:05;166.50;;;158.70;;
53439;SDS011;39333;47.044;15.080;2023-01-31T16:06:33;155.15;;;148.50;;
53439;SDS011;39333;47.044;15.080;2023-01-31T16:09:02;153.68;;;146.98;;
53439;SDS011;39333;47.044;15.080;2023-01-31T16:11:31;160.68;;;152.98;;
53439;SDS011;39333;47.044;15.080;2023-01-31T16:14:01;163.40;;;156.13;;
53439;SDS011;39333;47.044;15.080;2023-01-31T16:16:33;151.48;;;144.43;;
53439;SDS011;39333;47.044;15.080;2023-01-31T16:19:01;152.40;;;146.05;;
53439;SDS011;39333;47.044;15.080;2023-01-31T16:21:30;166.43;;;156.73;;
53439;SDS011;39333;47.044;15.080;2023-01-31T16:26:37;170.32;;;160.57;;
53439;SDS011;39333;47.044;15.080;2023-01-31T16:29:07;162.70;;;153.48;;
53439;SDS011;39333;47.044;15.080;2023-01-31T16:31:50;160.32;;;151.57;;